sensor_id;sensor_type;location;lat;lon;timestamp;pressure;altitude;pressure_sealevel;temperature;humidity
45255;BME280;30989;52.078;21.014;2023-08-31T00:01:38;167770.56;;;15.28;100.00
45255;BME280;30989;52.078;21.014;2023-08-31T00:04:04;167778.63;;;15.31;100.00
45255;BME280;30989;52.078;21.014;2023-08-31T00:06:30;167771.91;;;15.28;100.00
45255;BME280;30989;52.078;21.014;2023-08-31T00:08:55;167775.94;;;15.30;100.00
45255;BME280;30989;52.078;21.014;2023-08-31T00:11:21;167770.56;;;15.28;100.00
45255;BME280;30989;52.078;21.014;2023-08-31T00:13:46;167765.19;;;15.26;100.00
45255;BME280;30989;52.078;21.014;2023-08-31T00:16:12;167762.50;;;15.25;100.00
45255;BME280;30989;52.078;21.014;2023-08-31T00:18:37;167765.19;;;15.26;100.00
45255;BME280;30989;52.078;21.014;2023-08-31T00:21:04;167754.47;;;15.22;100.00
45255;BME280;30989;52.078;21.014;2023-08-31T00:23:30;167749.09;;;15.20;100.00
45255;BME280;30989;52.078;21.014;2023-08-31T00:25:55;167757.13;;;15.23;100.00
45255;BME280;30989;52.078;21.014;2023-08-31T00:28:22;167739.69;;;15.16;100.00
45255;BME280;30989;52.078;21.014;2023-08-31T00:30:48;167738.34;;;15.15;100.00
45255;BME280;30989;52.078;21.014;2023-08-31T00:33:14;167745.06;;;15.18;100.00
45255;BME280;30989;52.078;21.014;2023-08-31T00:35:40;167742.38;;;15.17;100.00
45255;BME280;30989;52.078;21.014;2023-08-31T00:38:11;167747.75;;;15.19;100.00
45255;BME280;30989;52.078;21.014;2023-08-31T00:40:44;167739.69;;;15.16;100.00
45255;BME280;30989;52.078;21.014;2023-08-31T00:43:15;167732.97;;;15.13;100.00
45255;BME280;30989;52.078;21.014;2023-08-31T00:45:41;167739.69;;;15.16;100.00
45255;BME280;30989;52.078;21.014;2023-08-31T00:48:07;167732.97;;;15.13;100.00
45255;BME280;30989;52.078;21.014;2023-08-31T00:50:33;167727.59;;;15.11;100.00
45255;BME280;30989;52.078;21.014;2023-08-31T00:53:00;167735.66;;;15.14;100.00
45255;BME280;30989;52.078;21.014;2023-08-31T00:55:26;167735.66;;;15.14;100.00
45255;BME280;30989;52.078;21.014;2023-08-31T00:57:51;167727.59;;;15.11;100.00
45255;BME280;30989;52.078;21.014;2023-08-31T01:00:17;167716.84;;;15.07;100.00
45255;BME280;30989;52.078;21.014;2023-08-31T01:11:31;167727.59;;;15.11;100.00
45255;BME280;30989;52.078;21.014;2023-08-31T01:14:09;167719.53;;;15.08;100.00
45255;BME280;30989;52.078;21.014;2023-08-31T01:16:38;167708.78;;;15.04;100.00
45255;BME280;30989;52.078;21.014;2023-08-31T01:19:16;167700.72;;;15.01;100.00
45255;BME280;30989;52.078;21.014;2023-08-31T01:21:44;167707.44;;;15.04;100.00
45255;BME280;30989;52.078;21.014;2023-08-31T01:24:13;167692.69;;;14.98;100.00
45255;BME280;30989;52.078;21.014;2023-08-31T01:26:39;167692.69;;;14.98;100.00
45255;BME280;30989;52.078;21.014;2023-08-31T01:29:06;167696.72;;;15.00;100.00
45255;BME280;30989;52.078;21.014;2023-08-31T01:31:32;167685.97;;;14.96;100.00
45255;BME280;30989;52.078;21.014;2023-08-31T01:33:57;167687.31;;;14.96;100.00
45255;BME280;30989;52.078;21.014;2023-08-31T01:36:26;167691.34;;;14.98;100.00
45255;BME280;30989;52.078;21.014;2023-08-31T01:39:23;167687.31;;;14.96;100.00
45255;BME280;30989;52.078;21.014;2023-08-31T01:41:55;167681.94;;;14.94;100.00
45255;BME280;30989;52.078;21.014;2023-08-31T01:44:23;167668.50;;;14.89;100.00
45255;BME280;30989;52.078;21.014;2023-08-31T01:46:53;167677.91;;;14.93;100.00
45255;BME280;30989;52.078;21.014;2023-08-31T01:49:23;167675.22;;;14.92;100.00
45255;BME280;30989;52.078;21.014;2023-08-31T01:51:49;167665.81;;;14.88;100.00
45255;BME280;30989;52.078;21.014;2023-08-31T01:54:14;167659.09;;;14.86;100.00
45255;BME280;30989;52.078;21.014;2023-08-31T01:56:40;167649.69;;;14.82;100.00
45255;BME280;30989;52.078;21.014;2023-08-31T01:59:05;167651.03;;;14.82;100.00
45255;BME280;30989;52.078;21.014;2023-08-31T02:01:32;167643.00;;;14.79;100.00
45255;BME280;30989;52.078;21.014;2023-08-31T02:03:58;167630.91;;;14.75;100.00
45255;BME280;30989;52.078;21.014;2023-08-31T02:06:26;167610.75;;;14.67;100.00
45255;BME280;30989;52.078;21.014;2023-08-31T02:08:52;167621.50;;;14.71;100.00
45255;BME280;30989;52.078;21.014;2023-08-31T02:11:17;167602.72;;;14.64;100.00
45255;BME280;30989;52.078;21.014;2023-08-31T02:13:42;167590.63;;;14.60;100.00
45255;BME280;30989;52.078;21.014;2023-08-31T02:16:08;167585.25;;;14.58;100.00
45255;BME280;30989;52.078;21.014;2023-08-31T02:18:35;167587.94;;;14.59;100.00
45255;BME280;30989;52.078;21.014;2023-08-31T02:21:00;167579.88;;;14.56;100.00
45255;BME280;30989;52.078;21.014;2023-08-31T02:23:26;167586.59;;;14.58;100.00
45255;BME280;30989;52.078;21.014;2023-08-31T02:25:51;167575.84;;;14.54;100.00
45255;BME280;30989;52.078;21.014;2023-08-31T02:28:16;167583.91;;;14.57;100.00
45255;BME280;30989;52.078;21.014;2023-08-31T02:30:45;167579.88;;;14.56;100.00
45255;BME280;30989;52.078;21.014;2023-08-31T02:33:11;167566.47;;;14.50;100.00
45255;BME280;30989;52.078;21.014;2023-08-31T02:35:36;167585.25;;;14.58;100.00
45255;BME280;30989;52.078;21.014;2023-08-31T02:38:03;167587.94;;;14.59;100.00
45255;BME280;30989;52.078;21.014;2023-08-31T02:40:29;167590.63;;;14.60;100.00
45255;BME280;30989;52.078;21.014;2023-08-31T02:42:54;167586.59;;;14.58;100.00
45255;BME280;30989;52.078;21.014;2023-08-31T02:45:20;167593.31;;;14.61;100.00
45255;BME280;30989;52.078;21.014;2023-08-31T02:47:45;167598.69;;;14.63;100.00
45255;BME280;30989;52.078;21.014;2023-08-31T02:50:11;167601.38;;;14.64;100.00
45255;BME280;30989;52.078;21.014;2023-08-31T02:52:36;167601.38;;;14.64;100.00
45255;BME280;30989;52.078;21.014;2023-08-31T02:55:02;167600.03;;;14.63;100.00
45255;BME280;30989;52.078;21.014;2023-08-31T02:57:28;167609.41;;;14.67;100.00
45255;BME280;30989;52.078;21.014;2023-08-31T02:59:53;167616.13;;;14.69;100.00
45255;BME280;30989;52.078;21.014;2023-08-31T03:02:19;167612.09;;;14.68;100.00
45255;BME280;30989;52.078;21.014;2023-08-31T03:04:44;167609.41;;;14.67;100.00
45255;BME280;30989;52.078;21.014;2023-08-31T03:07:10;167606.75;;;14.66;100.00
45255;BME280;30989;52.078;21.014;2023-08-31T03:09:39;167617.47;;;14.70;100.00
45255;BME280;30989;52.078;21.014;2023-08-31T03:12:05;167625.53;;;14.73;100.00
45255;BME280;30989;52.078;21.014;2023-08-31T03:14:30;167633.59;;;14.76;100.00
45255;BME280;30989;52.078;21.014;2023-08-31T03:16:56;167622.84;;;14.72;100.00
45255;BME280;30989;52.078;21.014;2023-08-31T03:19:21;167620.16;;;14.71;100.00
45255;BME280;30989;52.078;21.014;2023-08-31T03:21:47;167626.88;;;14.73;100.00
45255;BME280;30989;52.078;21.014;2023-08-31T03:24:14;167625.53;;;14.73;100.00
45255;BME280;30989;52.078;21.014;2023-08-31T03:26:39;167624.19;;;14.72;100.00
45255;BME280;30989;52.078;21.014;2023-08-31T03:29:04;167620.16;;;14.71;100.00
45255;BME280;30989;52.078;21.014;2023-08-31T03:31:30;167618.81;;;14.70;100.00
45255;BME280;30989;52.078;21.014;2023-08-31T03:33:56;167621.50;;;14.71;100.00
45255;BME280;30989;52.078;21.014;2023-08-31T03:36:21;167629.56;;;14.74;100.00
45255;BME280;30989;52.078;21.014;2023-08-31T03:38:47;167633.59;;;14.76;100.00
45255;BME280;30989;52.078;21.014;2023-08-31T03:41:12;167622.84;;;14.72;100.00
45255;BME280;30989;52.078;21.014;2023-08-31T03:43:38;167630.91;;;14.75;100.00
45255;BME280;30989;52.078;21.014;2023-08-31T03:46:05;167632.25;;;14.75;100.00
45255;BME280;30989;52.078;21.014;2023-08-31T03:48:30;167630.91;;;14.75;100.00
45255;BME280;30989;52.078;21.014;2023-08-31T03:50:56;167636.28;;;14.77;100.00
45255;BME280;30989;52.078;21.014;2023-08-31T03:53:22;167628.22;;;14.74;100.00
45255;BME280;30989;52.078;21.014;2023-08-31T03:55:50;167622.84;;;14.72;100.00
45255;BME280;30989;52.078;21.014;2023-08-31T03:58:16;167612.09;;;14.68;100.00
45255;BME280;30989;52.078;21.014;2023-08-31T04:00:49;167608.06;;;14.66;100.00
45255;BME280;30989;52.078;21.014;2023-08-31T04:03:15;167612.09;;;14.68;100.00
45255;BME280;30989;52.078;21.014;2023-08-31T04:05:41;167620.16;;;14.71;100.00
45255;BME280;30989;52.078;21.014;2023-08-31T04:08:09;167618.81;;;14.70;100.00
45255;BME280;30989;52.078;21.014;2023-08-31T04:10:35;167629.56;;;14.74;100.00
45255;BME280;30989;52.078;21.014;2023-08-31T04:13:00;167622.84;;;14.72;100.00
45255;BME280;30989;52.078;21.014;2023-08-31T04:15:27;167625.53;;;14.73;100.00
45255;BME280;30989;52.078;21.014;2023-08-31T04:17:53;167622.84;;;14.72;100.00
45255;BME280;30989;52.078;21.014;2023-08-31T04:20:18;167628.22;;;14.74;100.00
45255;BME280;30989;52.078;21.014;2023-08-31T04:22:44;167624.19;;;14.72;100.00
45255;BME280;30989;52.078;21.014;2023-08-31T04:25:10;167624.19;;;14.72;100.00
45255;BME280;30989;52.078;21.014;2023-08-31T04:27:35;167628.22;;;14.74;100.00
45255;BME280;30989;52.078;21.014;2023-08-31T04:30:01;167622.84;;;14.72;100.00
45255;BME280;30989;52.078;21.014;2023-08-31T04:32:27;167626.88;;;14.73;100.00
45255;BME280;30989;52.078;21.014;2023-08-31T04:34:53;167644.34;;;14.80;100.00
45255;BME280;30989;52.078;21.014;2023-08-31T04:37:18;167645.66;;;14.80;100.00
45255;BME280;30989;52.078;21.014;2023-08-31T04:39:44;167636.28;;;14.77;100.00
45255;BME280;30989;52.078;21.014;2023-08-31T04:42:09;167640.31;;;14.78;100.00
45255;BME280;30989;52.078;21.014;2023-08-31T04:44:35;167655.06;;;14.84;100.00
45255;BME280;30989;52.078;21.014;2023-08-31T04:47:00;167640.31;;;14.78;100.00
45255;BME280;30989;52.078;21.014;2023-08-31T04:49:26;167665.81;;;14.88;100.00
45255;BME280;30989;52.078;21.014;2023-08-31T04:51:52;167665.81;;;14.88;100.00
45255;BME280;30989;52.078;21.014;2023-08-31T04:54:17;167659.09;;;14.86;100.00
45255;BME280;30989;52.078;21.014;2023-08-31T04:56:43;167683.28;;;14.95;100.00
45255;BME280;30989;52.078;21.014;2023-08-31T04:59:08;167687.31;;;14.96;100.00
45255;BME280;30989;52.078;21.014;2023-08-31T05:01:34;167687.31;;;14.96;100.00
45255;BME280;30989;52.078;21.014;2023-08-31T05:03:59;167700.72;;;15.01;100.00
45255;BME280;30989;52.078;21.014;2023-08-31T05:06:25;167700.72;;;15.01;100.00
45255;BME280;30989;52.078;21.014;2023-08-31T05:08:50;167702.06;;;15.02;100.00
45255;BME280;30989;52.078;21.014;2023-08-31T05:11:16;167703.41;;;15.02;100.00
45255;BME280;30989;52.078;21.014;2023-08-31T05:13:41;167704.75;;;15.03;100.00
45255;BME280;30989;52.078;21.014;2023-08-31T05:16:10;167704.75;;;15.03;100.00
45255;BME280;30989;52.078;21.014;2023-08-31T05:18:36;167706.09;;;15.03;100.00
45255;BME280;30989;52.078;21.014;2023-08-31T05:21:02;167703.41;;;15.02;100.00
45255;BME280;30989;52.078;21.014;2023-08-31T05:23:28;167724.91;;;15.10;100.00
45255;BME280;30989;52.078;21.014;2023-08-31T05:25:54;167739.69;;;15.16;100.00
45255;BME280;30989;52.078;21.014;2023-08-31T05:28:22;167732.97;;;15.13;100.00
45255;BME280;30989;52.078;21.014;2023-08-31T05:30:52;167727.59;;;15.11;100.00
45255;BME280;30989;52.078;21.014;2023-08-31T05:33:18;167730.28;;;15.12;100.00
45255;BME280;30989;52.078;21.014;2023-08-31T05:35:44;167728.94;;;15.12;100.00
45255;BME280;30989;52.078;21.014;2023-08-31T05:38:10;167731.63;;;15.13;100.00
45255;BME280;30989;52.078;21.014;2023-08-31T05:40:35;167735.66;;;15.14;100.00
45255;BME280;30989;52.078;21.014;2023-08-31T05:43:01;167734.31;;;15.14;100.00
45255;BME280;30989;52.078;21.014;2023-08-31T05:45:31;167741.03;;;15.16;100.00
45255;BME280;30989;52.078;21.014;2023-08-31T05:47:56;167742.38;;;15.17;100.00
45255;BME280;30989;52.078;21.014;2023-08-31T05:50:22;167751.78;;;15.21;100.00
45255;BME280;30989;52.078;21.014;2023-08-31T05:52:47;167796.09;;;15.37;100.00
45255;BME280;30989;52.078;21.014;2023-08-31T05:55:13;167827.00;;;15.49;100.00
45255;BME280;30989;52.078;21.014;2023-08-31T05:57:38;167837.75;;;15.53;100.00
45255;BME280;30989;52.078;21.014;2023-08-31T06:00:05;167876.78;;;15.68;100.00
45255;BME280;30989;52.078;21.014;2023-08-31T06:02:38;167902.31;;;15.77;100.00
45255;BME280;30989;52.078;21.014;2023-08-31T06:05:03;167922.47;;;15.85;100.00
45255;BME280;30989;52.078;21.014;2023-08-31T06:07:29;167942.63;;;15.93;100.00
45255;BME280;30989;52.078;21.014;2023-08-31T06:09:56;167958.75;;;15.99;100.00
45255;BME280;30989;52.078;21.014;2023-08-31T06:12:22;167956.06;;;15.98;100.00
45255;BME280;30989;52.078;21.014;2023-08-31T06:14:47;167954.72;;;15.97;100.00
45255;BME280;30989;52.078;21.014;2023-08-31T06:17:13;167950.69;;;15.96;100.00
45255;BME280;30989;52.078;21.014;2023-08-31T06:19:39;167958.75;;;15.99;100.00
45255;BME280;30989;52.078;21.014;2023-08-31T06:22:05;167973.53;;;16.04;100.00
45255;BME280;30989;52.078;21.014;2023-08-31T06:24:30;167984.28;;;16.08;100.00
45255;BME280;30989;52.078;21.014;2023-08-31T06:26:57;167995.03;;;16.13;100.00
45255;BME280;30989;52.078;21.014;2023-08-31T06:29:23;168012.50;;;16.19;100.00
45255;BME280;30989;52.078;21.014;2023-08-31T06:31:49;168034.00;;;16.27;100.00
45255;BME280;30989;52.078;21.014;2023-08-31T06:34:14;168051.47;;;16.34;100.00
45255;BME280;30989;52.078;21.014;2023-08-31T06:36:40;168063.56;;;16.38;100.00
45255;BME280;30989;52.078;21.014;2023-08-31T06:39:06;168093.16;;;16.50;100.00
45255;BME280;30989;52.078;21.014;2023-08-31T06:41:32;168113.31;;;16.57;100.00
45255;BME280;30989;52.078;21.014;2023-08-31T06:43:57;168122.72;;;16.61;100.00
45255;BME280;30989;52.078;21.014;2023-08-31T06:46:23;168111.97;;;16.57;100.00
45255;BME280;30989;52.078;21.014;2023-08-31T06:48:48;168113.31;;;16.57;100.00
45255;BME280;30989;52.078;21.014;2023-08-31T06:51:14;168152.34;;;16.72;100.00
45255;BME280;30989;52.078;21.014;2023-08-31T06:53:42;168155.03;;;16.73;100.00
45255;BME280;30989;52.078;21.014;2023-08-31T06:56:09;168151.00;;;16.71;100.00
45255;BME280;30989;52.078;21.014;2023-08-31T06:58:34;168132.13;;;16.64;100.00
45255;BME280;30989;52.078;21.014;2023-08-31T07:01:00;168101.22;;;16.53;100.00
45255;BME280;30989;52.078;21.014;2023-08-31T07:03:26;168077.03;;;16.43;100.00
45255;BME280;30989;52.078;21.014;2023-08-31T07:05:52;168075.69;;;16.43;100.00
45255;BME280;30989;52.078;21.014;2023-08-31T07:08:17;168085.09;;;16.47;100.00
45255;BME280;30989;52.078;21.014;2023-08-31T07:10:43;168093.16;;;16.50;100.00
45255;BME280;30989;52.078;21.014;2023-08-31T07:13:08;168082.41;;;16.46;100.00
45255;BME280;30989;52.078;21.014;2023-08-31T07:15:34;168086.44;;;16.47;100.00
45255;BME280;30989;52.078;21.014;2023-08-31T07:17:59;168083.75;;;16.46;100.00
45255;BME280;30989;52.078;21.014;2023-08-31T07:20:25;168082.41;;;16.46;100.00
45255;BME280;30989;52.078;21.014;2023-08-31T07:22:51;168099.88;;;16.52;100.00
45255;BME280;30989;52.078;21.014;2023-08-31T07:25:16;168124.06;;;16.61;100.00
45255;BME280;30989;52.078;21.014;2023-08-31T07:27:42;168159.06;;;16.74;100.00
45255;BME280;30989;52.078;21.014;2023-08-31T07:30:07;168172.50;;;16.80;100.00
45255;BME280;30989;52.078;21.014;2023-08-31T07:32:33;168195.38;;;16.88;100.00
45255;BME280;30989;52.078;21.014;2023-08-31T07:34:59;168198.06;;;16.89;100.00
45255;BME280;30989;52.078;21.014;2023-08-31T07:37:24;168187.28;;;16.85;100.00
45255;BME280;30989;52.078;21.014;2023-08-31T07:39:50;168192.66;;;16.87;100.00
45255;BME280;30989;52.078;21.014;2023-08-31T07:42:16;168222.25;;;16.98;100.00
45255;BME280;30989;52.078;21.014;2023-08-31T07:44:41;168227.63;;;17.00;100.00
45255;BME280;30989;52.078;21.014;2023-08-31T07:47:07;168235.69;;;17.03;100.00
45255;BME280;30989;52.078;21.014;2023-08-31T07:49:33;168302.94;;;17.29;100.00
45255;BME280;30989;52.078;21.014;2023-08-31T07:51:58;168350.00;;;17.47;100.00
45255;BME280;30989;52.078;21.014;2023-08-31T07:54:24;168374.19;;;17.56;100.00
45255;BME280;30989;52.078;21.014;2023-08-31T07:56:51;168368.81;;;17.54;100.00
45255;BME280;30989;52.078;21.014;2023-08-31T07:59:17;168374.19;;;17.56;100.00
45255;BME280;30989;52.078;21.014;2023-08-31T08:01:43;168378.25;;;17.57;100.00
45255;BME280;30989;52.078;21.014;2023-08-31T08:04:10;168376.91;;;17.57;100.00
45255;BME280;30989;52.078;21.014;2023-08-31T08:06:36;168360.75;;;17.51;100.00
45255;BME280;30989;52.078;21.014;2023-08-31T08:09:01;168387.66;;;17.61;100.00
45255;BME280;30989;52.078;21.014;2023-08-31T08:11:27;168440.16;;;17.81;100.00
45255;BME280;30989;52.078;21.014;2023-08-31T08:13:52;168487.25;;;17.98;100.00
45255;BME280;30989;52.078;21.014;2023-08-31T08:16:18;168495.31;;;18.01;100.00
45255;BME280;30989;52.078;21.014;2023-08-31T08:18:43;168496.66;;;18.02;100.00
45255;BME280;30989;52.078;21.014;2023-08-31T08:21:09;168555.84;;;18.24;100.00
45255;BME280;30989;52.078;21.014;2023-08-31T08:23:34;168563.94;;;18.27;100.00
45255;BME280;30989;52.078;21.014;2023-08-31T08:25:59;168569.31;;;18.29;100.00
45255;BME280;30989;52.078;21.014;2023-08-31T08:28:25;168581.41;;;18.34;100.00
45255;BME280;30989;52.078;21.014;2023-08-31T08:30:51;168615.06;;;18.47;100.00
45255;BME280;30989;52.078;21.014;2023-08-31T08:33:16;168650.03;;;18.60;100.00
45255;BME280;30989;52.078;21.014;2023-08-31T08:35:42;168686.44;;;18.74;99.67
45255;BME280;30989;52.078;21.014;2023-08-31T08:38:08;168705.28;;;18.81;100.00
45255;BME280;30989;52.078;21.014;2023-08-31T08:40:34;168760.47;;;19.02;100.00
45255;BME280;30989;52.078;21.014;2023-08-31T08:43:06;168822.38;;;19.25;99.05
45255;BME280;30989;52.078;21.014;2023-08-31T08:45:43;168904.56;;;19.56;100.00
45255;BME280;30989;52.078;21.014;2023-08-31T08:48:13;169017.66;;;19.99;100.00
45255;BME280;30989;52.078;21.014;2023-08-31T08:50:40;169060.75;;;20.15;88.22
45255;BME280;30989;52.078;21.014;2023-08-31T08:53:05;169054.03;;;20.12;93.56
45255;BME280;30989;52.078;21.014;2023-08-31T08:55:32;169059.41;;;20.14;94.12
45255;BME280;30989;52.078;21.014;2023-08-31T08:57:58;169021.69;;;20.00;86.91
45255;BME280;30989;52.078;21.014;2023-08-31T09:00:26;168977.25;;;19.83;88.04
45255;BME280;30989;52.078;21.014;2023-08-31T09:02:52;168939.56;;;19.69;87.88
45255;BME280;30989;52.078;21.014;2023-08-31T09:05:17;168916.66;;;19.60;90.14
45255;BME280;30989;52.078;21.014;2023-08-31T09:08:06;168913.97;;;19.59;91.13
45255;BME280;30989;52.078;21.014;2023-08-31T09:10:42;168935.50;;;19.68;94.24
45255;BME280;30989;52.078;21.014;2023-08-31T09:13:13;168982.66;;;19.85;91.72
45255;BME280;30989;52.078;21.014;2023-08-31T09:15:40;169005.53;;;19.94;90.84
45255;BME280;30989;52.078;21.014;2023-08-31T09:18:06;169027.09;;;20.02;92.39
45255;BME280;30989;52.078;21.014;2023-08-31T09:20:42;169064.78;;;20.16;91.98
45255;BME280;30989;52.078;21.014;2023-08-31T09:23:09;169109.25;;;20.33;89.28
45255;BME280;30989;52.078;21.014;2023-08-31T09:25:41;169126.81;;;20.40;85.47
45255;BME280;30989;52.078;21.014;2023-08-31T09:28:06;169115.97;;;20.36;82.84
45255;BME280;30989;52.078;21.014;2023-08-31T09:30:36;169105.19;;;20.32;85.80
45255;BME280;30989;52.078;21.014;2023-08-31T09:33:06;169078.25;;;20.21;87.38
45255;BME280;30989;52.078;21.014;2023-08-31T09:35:32;169063.44;;;20.16;84.53
45255;BME280;30989;52.078;21.014;2023-08-31T09:37:58;169054.03;;;20.12;87.86
45255;BME280;30989;52.078;21.014;2023-08-31T09:40:23;169039.22;;;20.07;85.36
45255;BME280;30989;52.078;21.014;2023-08-31T09:42:52;169063.44;;;20.16;86.91
45255;BME280;30989;52.078;21.014;2023-08-31T09:45:23;169101.16;;;20.30;87.42
45255;BME280;30989;52.078;21.014;2023-08-31T09:47:50;169141.63;;;20.45;84.78
45255;BME280;30989;52.078;21.014;2023-08-31T09:50:16;169151.06;;;20.49;86.61
45255;BME280;30989;52.078;21.014;2023-08-31T09:52:42;169141.63;;;20.45;88.16
45255;BME280;30989;52.078;21.014;2023-08-31T09:55:11;169091.72;;;20.26;83.13
45255;BME280;30989;52.078;21.014;2023-08-31T09:57:38;169085.00;;;20.24;84.93
45255;BME280;30989;52.078;21.014;2023-08-31T10:00:05;169111.94;;;20.34;86.75
45255;BME280;30989;52.078;21.014;2023-08-31T10:02:35;169163.19;;;20.53;86.58
45255;BME280;30989;52.078;21.014;2023-08-31T10:05:00;169213.03;;;20.72;88.58
45255;BME280;30989;52.078;21.014;2023-08-31T10:07:26;169262.91;;;20.91;83.92
45255;BME280;30989;52.078;21.014;2023-08-31T10:09:52;169242.72;;;20.83;81.72
45255;BME280;30989;52.078;21.014;2023-08-31T10:12:18;169227.84;;;20.78;81.98
45255;BME280;30989;52.078;21.014;2023-08-31T10:14:45;169250.78;;;20.86;83.93
45255;BME280;30989;52.078;21.014;2023-08-31T10:17:12;169323.56;;;21.14;85.74
45255;BME280;30989;52.078;21.014;2023-08-31T10:19:39;169381.56;;;21.36;84.07
45255;BME280;30989;52.078;21.014;2023-08-31T10:22:05;169407.16;;;21.45;84.83
45255;BME280;30989;52.078;21.014;2023-08-31T10:24:56;169477.25;;;21.72;84.87
45255;BME280;30989;52.078;21.014;2023-08-31T10:27:23;169543.31;;;21.97;81.71
45255;BME280;30989;52.078;21.014;2023-08-31T10:29:48;169585.16;;;22.12;78.17
45255;BME280;30989;52.078;21.014;2023-08-31T10:32:17;169536.56;;;21.94;74.52
45255;BME280;30989;52.078;21.014;2023-08-31T10:35:07;169515.00;;;21.86;77.91
45255;BME280;30989;52.078;21.014;2023-08-31T10:37:32;169442.19;;;21.59;75.44
45255;BME280;30989;52.078;21.014;2023-08-31T10:40:11;169391.00;;;21.39;77.41
45255;BME280;30989;52.078;21.014;2023-08-31T10:42:44;169330.28;;;21.16;76.58
45255;BME280;30989;52.078;21.014;2023-08-31T10:45:10;169304.69;;;21.07;78.19
45255;BME280;30989;52.078;21.014;2023-08-31T10:47:40;169299.31;;;21.05;81.08
45255;BME280;30989;52.078;21.014;2023-08-31T10:50:22;169323.56;;;21.14;82.02
45255;BME280;30989;52.078;21.014;2023-08-31T10:52:48;169335.69;;;21.18;80.51
45255;BME280;30989;52.078;21.014;2023-08-31T10:55:13;169310.09;;;21.09;81.04
45255;BME280;30989;52.078;21.014;2023-08-31T10:57:40;169277.75;;;20.97;80.70
45255;BME280;30989;52.078;21.014;2023-08-31T11:00:09;169254.84;;;20.88;83.40
45255;BME280;30989;52.078;21.014;2023-08-31T11:05:13;169331.66;;;21.17;81.66
45255;BME280;30989;52.078;21.014;2023-08-31T11:07:48;169346.50;;;21.22;79.21
45255;BME280;30989;52.078;21.014;2023-08-31T11:10:22;169366.72;;;21.30;77.40
45255;BME280;30989;52.078;21.014;2023-08-31T11:12:53;169358.66;;;21.27;78.06
45255;BME280;30989;52.078;21.014;2023-08-31T11:15:24;169361.34;;;21.28;79.98
45255;BME280;30989;52.078;21.014;2023-08-31T11:17:52;169417.94;;;21.49;77.55
45255;BME280;30989;52.078;21.014;2023-08-31T11:20:19;169447.59;;;21.61;77.13
45255;BME280;30989;52.078;21.014;2023-08-31T11:22:50;169477.25;;;21.72;74.66
45255;BME280;30989;52.078;21.014;2023-08-31T11:25:18;169523.09;;;21.89;71.95
45255;BME280;30989;52.078;21.014;2023-08-31T11:28:00;169670.09;;;22.44;72.18
45255;BME280;30989;52.078;21.014;2023-08-31T11:30:28;169817.13;;;23.00;73.47
45255;BME280;30989;52.078;21.014;2023-08-31T11:32:54;169867.03;;;23.19;68.70
45255;BME280;30989;52.078;21.014;2023-08-31T11:35:22;169838.72;;;23.08;67.16
45255;BME280;30989;52.078;21.014;2023-08-31T11:37:56;169830.63;;;23.05;70.94
45255;BME280;30989;52.078;21.014;2023-08-31T11:40:21;169763.19;;;22.79;68.88
45255;BME280;30989;52.078;21.014;2023-08-31T11:42:48;169757.75;;;22.77;71.35
45255;BME280;30989;52.078;21.014;2023-08-31T11:45:15;169803.66;;;22.95;70.34
45255;BME280;30989;52.078;21.014;2023-08-31T11:47:42;169830.63;;;23.05;72.00
45255;BME280;30989;52.078;21.014;2023-08-31T11:50:11;169833.31;;;23.06;73.22
45255;BME280;30989;52.078;21.014;2023-08-31T11:52:38;169848.16;;;23.11;66.98
45255;BME280;30989;52.078;21.014;2023-08-31T11:55:10;169849.50;;;23.12;67.24
45255;BME280;30989;52.078;21.014;2023-08-31T11:57:36;169868.41;;;23.19;70.84
45255;BME280;30989;52.078;21.014;2023-08-31T12:00:02;169995.25;;;23.67;66.00
45255;BME280;30989;52.078;21.014;2023-08-31T12:02:37;170095.13;;;24.04;70.02
45255;BME280;30989;52.078;21.014;2023-08-31T12:05:02;170168.03;;;24.32;62.64
45255;BME280;30989;52.078;21.014;2023-08-31T12:07:30;170120.75;;;24.14;63.72
45255;BME280;30989;52.078;21.014;2023-08-31T12:10:03;170103.22;;;24.07;66.65
45255;BME280;30989;52.078;21.014;2023-08-31T12:12:29;170208.53;;;24.47;65.75
45255;BME280;30989;52.078;21.014;2023-08-31T12:14:58;170363.84;;;25.05;68.63
45255;BME280;30989;52.078;21.014;2023-08-31T12:17:28;170578.59;;;25.86;65.33
45255;BME280;30989;52.078;21.014;2023-08-31T12:20:02;170835.38;;;26.83;56.96
45255;BME280;30989;52.078;21.014;2023-08-31T12:22:29;170839.44;;;26.84;54.96
45255;BME280;30989;52.078;21.014;2023-08-31T12:24:54;170716.47;;;26.38;59.29
45255;BME280;30989;52.078;21.014;2023-08-31T12:27:20;170627.28;;;26.05;58.30
45255;BME280;30989;52.078;21.014;2023-08-31T12:29:46;170550.22;;;25.76;60.24
45255;BME280;30989;52.078;21.014;2023-08-31T12:32:11;170536.72;;;25.70;63.14
45255;BME280;30989;52.078;21.014;2023-08-31T12:34:37;170719.19;;;26.39;60.26
45255;BME280;30989;52.078;21.014;2023-08-31T12:37:02;170836.72;;;26.83;60.53
45255;BME280;30989;52.078;21.014;2023-08-31T12:39:29;170823.22;;;26.78;54.71
45255;BME280;30989;52.078;21.014;2023-08-31T12:41:55;170882.72;;;27.01;54.21
45255;BME280;30989;52.078;21.014;2023-08-31T12:44:21;170792.16;;;26.67;54.40